Time;durP1;ratioP1;P1;durP2;ratioP2;P2;SDS_P1;SDS_P2;PMS_P1;PMS_P2;Temp;Humidity;BMP_temperature;BMP_pressure;BME280_temperature;BME280_humidity;BME280_pressure;Samples;Min_cycle;Max_cycle;Signal;HPM_P1;HPM_P2
2022/11/10 00:03:10;;;;;;;43.83;28.55;;;14.40;99.90;;;;;;5053936;28;20036;-68
2022/11/10 00:06:33;;;;;;;47.45;31.73;;;14.30;99.90;;;;;;5053701;28;20044;-69
2022/11/10 00:09:55;;;;;;;48.47;30.50;;;14.30;99.90;;;;;;5053818;28;20052;-68
2022/11/10 00:13:18;;;;;;;44.80;29.83;;;14.10;99.90;;;;;;5053801;28;20048;-69
2022/11/10 00:20:22;;;;;;;41.78;28.98;;;14.10;99.90;;;;;;5053516;28;20040;-68
2022/11/10 00:23:46;;;;;;;45.45;28.15;;;14.20;99.90;;;;;;5053397;28;20051;-69
2022/11/10 00:27:09;;;;;;;42.20;28.52;;;14.30;99.90;;;;;;5053337;28;20059;-68
2022/11/10 00:30:32;;;;;;;46.28;28.83;;;14.30;99.90;;;;;;5053134;28;20052;-69
2022/11/10 00:33:55;;;;;;;43.45;28.92;;;14.40;99.90;;;;;;5053222;28;20112;-69
2022/11/10 00:37:17;;;;;;;53.00;30.30;;;14.50;99.90;;;;;;5053018;28;20060;-68
2022/11/10 00:40:40;;;;;;;46.95;29.25;;;14.50;99.90;;;;;;5052953;28;20039;-68
2022/11/10 00:44:03;;;;;;;44.00;28.45;;;14.60;99.90;;;;;;5053072;28;20497;-69
2022/11/10 00:47:25;;;;;;;42.53;28.92;;;14.50;99.90;;;;;;5052938;28;20044;-69
2022/11/10 00:50:48;;;;;;;40.85;27.92;;;14.50;99.90;;;;;;5052618;28;20059;-68
2022/11/10 00:54:11;;;;;;;42.67;28.42;;;14.50;99.90;;;;;;5052538;28;20096;-68
2022/11/10 00:57:34;;;;;;;46.08;28.77;;;14.40;99.90;;;;;;5052684;28;20500;-68
2022/11/10 01:01:04;;;;;;;41.42;28.17;;;14.30;99.90;;;;;;5052404;28;20044;-68
2022/11/10 01:04:26;;;;;;;44.03;28.73;;;14.30;99.90;;;;;;5052448;28;20044;-67
2022/11/10 01:07:49;;;;;;;45.83;28.67;;;14.30;99.90;;;;;;5052574;28;20052;-68
2022/11/10 01:11:19;;;;;;;41.08;28.48;;;14.20;99.90;;;;;;5052620;28;20520;-69
2022/11/10 01:14:41;;;;;;;43.47;29.45;;;14.10;99.90;;;;;;5052212;28;20040;-69
2022/11/10 01:18:04;;;;;;;46.67;31.05;;;14.10;99.90;;;;;;5052437;28;20524;-68
2022/11/10 01:21:27;;;;;;;48.10;30.30;;;14.10;99.90;;;;;;5052073;28;20063;-68
2022/11/10 01:24:50;;;;;;;48.85;33.60;;;14.20;99.90;;;;;;5052198;28;20111;-68
2022/11/10 01:28:12;;;;;;;50.13;32.10;;;14.00;99.90;;;;;;5052106;28;20059;-68
2022/11/10 01:31:34;;;;;;;48.60;33.10;;;14.00;99.90;;;;;;5051781;28;20044;-67
2022/11/10 01:34:56;;;;;;;55.55;34.30;;;14.10;99.90;;;;;;5051796;28;20040;-68
2022/11/10 01:38:18;;;;;;;45.75;31.52;;;14.10;99.90;;;;;;5052130;28;20044;-68
2022/11/10 01:41:41;;;;;;;47.08;30.75;;;14.10;99.90;;;;;;5052119;28;20067;-68
2022/11/10 01:45:54;;;;;;;43.15;29.85;;;14.00;99.90;;;;;;5051603;28;20047;-68
2022/11/10 01:49:20;;;;;;;46.60;31.17;;;14.00;99.90;;;;;;5049933;28;20397;-68
2022/11/10 01:52:47;;;;;;;45.20;29.40;;;14.10;99.90;;;;;;5051722;28;20096;-68
2022/11/10 01:56:12;;;;;;;45.53;29.80;;;14.10;99.90;;;;;;5051484;28;20064;-68
2022/11/10 01:59:40;;;;;;;44.80;29.40;;;14.10;99.90;;;;;;5051567;28;20064;-68
2022/11/10 02:03:08;;;;;;;44.92;31.08;;;14.00;99.90;;;;;;5051521;28;20040;-68
2022/11/10 02:06:37;;;;;;;47.40;30.92;;;13.70;99.90;;;;;;5051501;28;20048;-68
2022/11/10 02:10:04;;;;;;;47.28;31.50;;;13.60;99.90;;;;;;5051260;28;20456;-68
2022/11/10 02:13:26;;;;;;;48.15;32.15;;;13.60;99.90;;;;;;5050802;28;20504;-67
2022/11/10 02:16:49;;;;;;;44.10;29.80;;;13.60;99.90;;;;;;5051454;28;20570;-67
2022/11/10 02:20:14;;;;;;;39.63;29.33;;;13.60;99.90;;;;;;5051371;28;20036;-69
2022/11/10 02:23:37;;;;;;;46.45;29.75;;;13.60;99.90;;;;;;5051005;28;20060;-69
2022/11/10 02:26:59;;;;;;;45.13;30.50;;;13.60;99.90;;;;;;5051091;28;20048;-69
2022/11/10 02:30:22;;;;;;;44.83;29.80;;;13.60;99.90;;;;;;5050978;28;20056;-69
2022/11/10 02:33:45;;;;;;;44.25;29.33;;;13.80;99.90;;;;;;5050827;28;20060;-69
2022/11/10 02:37:09;;;;;;;48.00;28.67;;;13.80;99.90;;;;;;5051093;28;20048;-69
2022/11/10 02:40:31;;;;;;;44.72;28.80;;;13.90;99.90;;;;;;5051034;28;20040;-69
2022/11/10 02:43:56;;;;;;;40.00;28.70;;;14.00;99.90;;;;;;5050887;28;20067;-69
2022/11/10 02:47:18;;;;;;;40.33;26.65;;;13.90;99.90;;;;;;5055196;28;20040;-69
2022/11/10 02:50:41;;;;;;;34.75;23.67;;;14.00;99.90;;;;;;5054932;28;20056;-69
2022/11/10 02:54:05;;;;;;;38.03;24.80;;;14.00;99.90;;;;;;5054922;28;20043;-69
2022/11/10 02:57:27;;;;;;;35.05;23.05;;;13.80;99.90;;;;;;5055179;28;20048;-69
2022/11/10 03:00:49;;;;;;;28.35;21.08;;;13.80;99.90;;;;;;5055105;28;20484;-69
2022/11/10 03:04:12;;;;;;;32.10;20.50;;;13.70;99.90;;;;;;5054803;28;20048;-69
2022/11/10 03:07:35;;;;;;;34.30;22.27;;;13.70;99.90;;;;;;5054598;28;20048;-69
2022/11/10 03:10:58;;;;;;;31.92;21.25;;;13.50;99.90;;;;;;5054532;28;20048;-69
2022/11/10 03:14:20;;;;;;;34.45;22.75;;;13.50;99.90;;;;;;5054396;28;20040;-69
2022/11/10 03:17:43;;;;;;;33.63;22.92;;;13.30;99.90;;;;;;5054780;28;20043;-69
2022/11/10 03:21:06;;;;;;;36.15;22.77;;;13.30;99.90;;;;;;5054227;28;20036;-69
2022/11/10 03:24:28;;;;;;;32.78;22.58;;;13.30;99.90;;;;;;5054463;28;20055;-69
2022/11/10 03:27:51;;;;;;;37.67;23.15;;;13.40;99.90;;;;;;5054352;28;20040;-69
2022/11/10 03:31:13;;;;;;;34.30;23.83;;;13.40;99.90;;;;;;5053932;28;20056;-69
2022/11/10 03:34:36;;;;;;;32.60;24.17;;;13.30;99.90;;;;;;5054061;28;20048;-69
2022/11/10 03:37:59;;;;;;;34.25;24.85;;;13.40;99.90;;;;;;5054364;28;20507;-69
2022/11/10 03:41:22;;;;;;;39.30;27.10;;;13.40;99.90;;;;;;5054433;28;20060;-69
2022/11/10 03:44:45;;;;;;;39.25;28.08;;;13.40;99.90;;;;;;5054216;28;20048;-69
2022/11/10 03:48:07;;;;;;;38.25;27.05;;;13.50;99.90;;;;;;5054720;28;20044;-69
2022/11/10 03:51:30;;;;;;;41.50;28.05;;;13.50;99.90;;;;;;5053770;28;20408;-69
2022/11/10 03:54:52;;;;;;;38.45;26.75;;;13.60;99.90;;;;;;5053449;28;20092;-69
2022/11/10 03:58:15;;;;;;;36.05;25.65;;;13.70;99.90;;;;;;5054114;28;20040;-69
2022/11/10 04:01:37;;;;;;;43.15;28.08;;;13.70;99.90;;;;;;5054091;28;20511;-69
2022/11/10 04:09:00;;;;;;;37.05;28.08;;;13.50;99.90;;;;;;5053606;28;20401;-67
2022/11/10 04:16:04;;;;;;;;;;;13.80;99.90;;;;;;5054757;28;20047;-69
2022/11/10 04:19:27;;;;;;;41.58;26.92;;;13.80;99.90;;;;;;5053799;28;19915;-69
2022/11/10 04:26:32;;;;;;;38.70;28.85;;;13.70;99.90;;;;;;5053832;28;20499;-69
2022/11/10 04:29:54;;;;;;;37.25;28.70;;;13.70;99.90;;;;;;5053419;28;20064;-69
2022/11/10 04:33:17;;;;;;;37.95;28.75;;;13.80;99.90;;;;;;5053451;28;20044;-69
2022/11/10 04:36:42;;;;;;;40.90;29.50;;;13.70;99.90;;;;;;5053449;28;20063;-69
2022/11/10 04:40:05;;;;;;;43.22;30.25;;;13.60;99.90;;;;;;5053189;28;20596;-69
2022/11/10 04:43:28;;;;;;;40.72;29.50;;;13.60;99.90;;;;;;5052776;28;20044;-67
2022/11/10 04:46:51;;;;;;;41.08;28.85;;;13.70;99.90;;;;;;5052808;28;20064;-67
2022/11/10 04:50:13;;;;;;;36.20;27.48;;;13.70;99.90;;;;;;5052549;28;20060;-67
2022/11/10 04:53:36;;;;;;;36.00;24.48;;;13.70;99.90;;;;;;5052835;28;20523;-67
2022/11/10 04:56:59;;;;;;;45.80;28.60;;;13.70;99.90;;;;;;5052609;28;20048;-67
2022/11/10 05:00:21;;;;;;;36.60;25.63;;;13.80;99.90;;;;;;5052897;28;20047;-68
2022/11/10 05:03:45;;;;;;;38.08;25.65;;;13.90;99.90;;;;;;5052595;28;20044;-67
2022/11/10 05:07:08;;;;;;;31.52;24.80;;;13.90;99.90;;;;;;5051933;28;20417;-69
2022/11/10 05:10:32;;;;;;;28.08;22.70;;;14.00;99.90;;;;;;5052696;28;20051;-69
2022/11/10 05:13:54;;;;;;;37.50;24.20;;;14.00;99.90;;;;;;5052226;28;20103;-69
2022/11/10 05:17:17;;;;;;;31.10;22.52;;;13.90;99.90;;;;;;5052551;28;20052;-67
2022/11/10 05:20:40;;;;;;;32.15;24.20;;;13.90;99.90;;;;;;5052378;28;20524;-67
2022/11/10 05:24:03;;;;;;;33.28;21.98;;;13.90;99.90;;;;;;5051991;28;20036;-67
2022/11/10 05:27:25;;;;;;;28.50;20.38;;;14.00;99.90;;;;;;5052108;28;20519;-68
2022/11/10 05:30:48;;;;;;;29.55;21.10;;;14.00;99.90;;;;;;5052091;28;20060;-68
2022/11/10 05:34:10;;;;;;;26.38;18.38;;;14.00;99.90;;;;;;5051706;28;20048;-68
2022/11/10 05:37:32;;;;;;;23.17;16.95;;;14.00;99.90;;;;;;5052167;28;20044;-67
2022/11/10 05:40:55;;;;;;;23.58;16.88;;;14.10;99.90;;;;;;5051702;28;20388;-69
2022/11/10 05:44:18;;;;;;;25.42;17.08;;;14.10;99.90;;;;;;5051583;28;20720;-68
2022/11/10 05:47:41;;;;;;;21.02;15.27;;;14.10;99.90;;;;;;5051600;28;20040;-69
2022/11/10 05:51:04;;;;;;;20.15;14.77;;;14.20;99.90;;;;;;5051351;28;20052;-68
2022/11/10 05:54:27;;;;;;;23.98;16.40;;;14.20;99.90;;;;;;5051387;28;20572;-68
2022/11/10 05:57:52;;;;;;;26.38;17.10;;;14.20;99.90;;;;;;5051272;28;20045;-68
2022/11/10 06:01:15;;;;;;;22.52;15.35;;;14.20;99.90;;;;;;5051404;28;20048;-67
2022/11/10 06:04:37;;;;;;;21.30;15.45;;;14.20;99.90;;;;;;5051510;28;20409;-69
2022/11/10 06:08:01;;;;;;;22.38;16.23;;;14.20;99.90;;;;;;5051575;28;20257;-69
2022/11/10 06:11:24;;;;;;;28.05;17.10;;;14.20;99.90;;;;;;5050975;28;20048;-69
2022/11/10 06:14:46;;;;;;;24.38;16.83;;;14.10;99.90;;;;;;5049880;28;20048;-68
2022/11/10 06:18:08;;;;;;;27.98;16.95;;;14.20;99.90;;;;;;5051212;28;20040;-68
2022/11/10 06:21:31;;;;;;;24.92;17.13;;;14.40;99.90;;;;;;5051137;28;20048;-69
2022/11/10 06:24:53;;;;;;;27.48;16.67;;;14.40;99.90;;;;;;5051185;28;20040;-69
2022/11/10 06:28:16;;;;;;;29.85;15.73;;;14.50;99.90;;;;;;5050676;28;20044;-68
2022/11/10 06:31:39;;;;;;;24.55;16.25;;;14.60;99.90;;;;;;5050852;28;20048;-69
2022/11/10 06:35:02;;;;;;;28.15;15.55;;;14.70;99.90;;;;;;5051140;28;20044;-69
2022/11/10 06:38:25;;;;;;;23.55;16.20;;;14.70;99.90;;;;;;5050804;28;20044;-69
2022/11/10 06:41:48;;;;;;;26.45;16.00;;;14.70;99.90;;;;;;5050438;28;20044;-70
2022/11/10 06:45:10;;;;;;;27.48;17.20;;;14.80;99.90;;;;;;5050169;28;20051;-69
2022/11/10 06:48:33;;;;;;;24.60;15.55;;;14.80;99.90;;;;;;5050645;28;20059;-68
2022/11/10 06:51:56;;;;;;;27.13;17.15;;;14.90;99.90;;;;;;5050616;28;20409;-70
2022/11/10 06:55:18;;;;;;;26.50;17.33;;;15.00;99.90;;;;;;5050753;28;20044;-70
2022/11/10 06:58:40;;;;;;;26.10;17.50;;;14.90;99.90;;;;;;5050116;28;20385;-70
2022/11/10 07:02:03;;;;;;;24.83;17.45;;;14.90;99.90;;;;;;5050712;28;20048;-70
2022/11/10 07:05:26;;;;;;;25.02;14.88;;;15.00;99.90;;;;;;5050016;28;20488;-70
2022/11/10 07:08:49;;;;;;;22.15;15.10;;;15.00;99.90;;;;;;5050603;28;20507;-70
2022/11/10 07:12:12;;;;;;;27.65;16.83;;;15.10;99.90;;;;;;5049846;28;20104;-70
2022/11/10 07:15:35;;;;;;;23.70;17.05;;;15.10;99.90;;;;;;5050458;28;20508;-70
2022/11/10 07:18:57;;;;;;;27.98;16.52;;;15.20;99.90;;;;;;5050569;28;20044;-70
2022/11/10 07:22:20;;;;;;;29.85;17.10;;;15.20;99.90;;;;;;5050656;28;20044;-69
2022/11/10 07:25:43;;;;;;;23.92;15.60;;;15.30;99.90;;;;;;5050655;28;20507;-69
2022/11/10 07:29:05;;;;;;;22.88;15.18;;;15.30;99.90;;;;;;5050508;28;20056;-67
2022/11/10 07:32:28;;;;;;;26.75;17.92;;;15.50;99.90;;;;;;5054203;28;20514;-69
2022/11/10 07:35:56;;;;;;;42.10;26.83;;;15.50;99.90;;;;;;5053952;28;20044;-69
2022/11/10 07:39:18;;;;;;;60.95;37.35;;;15.60;99.90;;;;;;5053914;28;20046;-70
2022/11/10 07:42:41;;;;;;;35.60;21.85;;;15.60;99.90;;;;;;5054124;28;20507;-67
2022/11/10 07:46:04;;;;;;;23.40;17.20;;;15.70;99.90;;;;;;5054164;28;20499;-69
2022/11/10 07:49:26;;;;;;;19.83;15.50;;;15.90;99.90;;;;;;5053767;28;20507;-69
2022/11/10 07:52:49;;;;;;;22.23;15.60;;;16.30;99.90;;;;;;5053735;28;20052;-70
2022/11/10 07:56:13;;;;;;;19.60;13.55;;;16.60;99.90;;;;;;5053456;28;20044;-69
2022/11/10 07:59:35;;;;;;;18.40;13.40;;;16.90;99.90;;;;;;5053754;28;20107;-70
2022/11/10 08:03:03;;;;;;;17.67;11.07;;;17.20;99.90;;;;;;5053078;28;20071;-67
2022/11/10 08:06:26;;;;;;;27.27;11.73;;;17.30;99.90;;;;;;5053656;28;20052;-68
2022/11/10 08:09:49;;;;;;;14.70;10.32;;;17.50;99.90;;;;;;5053439;28;20056;-67
2022/11/10 08:13:13;;;;;;;11.65;8.55;;;17.70;99.90;;;;;;5053244;28;20044;-69
2022/11/10 08:16:36;;;;;;;11.82;8.30;;;17.90;99.90;;;;;;5053454;28;20099;-69
2022/11/10 08:19:58;;;;;;;10.60;8.55;;;18.20;99.90;;;;;;5053497;28;20036;-70
2022/11/10 08:23:21;;;;;;;13.73;8.48;;;18.40;99.90;;;;;;5053153;28;20048;-71
2022/11/10 08:26:43;;;;;;;11.80;8.32;;;18.60;99.90;;;;;;5053257;28;20515;-70
2022/11/10 08:30:07;;;;;;;10.25;8.32;;;18.90;99.90;;;;;;5053076;28;20048;-72
2022/11/10 08:33:30;;;;;;;9.98;7.97;;;19.00;99.90;;;;;;5052951;28;20040;-69
2022/11/10 08:36:53;;;;;;;13.02;8.98;;;19.20;99.80;;;;;;5052917;28;20040;-70
2022/11/10 08:40:17;;;;;;;9.75;8.30;;;19.30;99.40;;;;;;5052671;28;20048;-69
2022/11/10 08:43:40;;;;;;;9.38;7.68;;;19.20;99.00;;;;;;5050474;28;20063;-68
2022/11/10 08:47:03;;;;;;;14.20;8.23;;;19.20;98.80;;;;;;5052874;28;20036;-71
2022/11/10 08:50:27;;;;;;;12.80;9.60;;;19.10;98.80;;;;;;5051633;28;20060;-70
2022/11/10 08:53:49;;;;;;;13.68;9.25;;;19.00;98.70;;;;;;5052772;28;20044;-69
2022/11/10 08:57:12;;;;;;;13.30;9.18;;;18.90;98.90;;;;;;5052608;28;20051;-70
2022/11/10 09:00:35;;;;;;;16.25;9.48;;;18.80;99.00;;;;;;5052665;28;20056;-71
2022/11/10 09:03:58;;;;;;;15.40;8.55;;;18.80;99.20;;;;;;5052148;28;20500;-70
2022/11/10 09:07:21;;;;;;;17.55;10.63;;;18.70;99.30;;;;;;5052038;28;20040;-71
2022/11/10 09:10:46;;;;;;;16.23;9.25;;;18.80;99.50;;;;;;5052069;28;20269;-71
2022/11/10 09:14:09;;;;;;;14.05;8.65;;;19.20;99.60;;;;;;5051971;28;20040;-72
2022/11/10 09:17:32;;;;;;;17.90;9.05;;;19.50;99.20;;;;;;5051892;28;20052;-72
2022/11/10 09:20:55;;;;;;;11.70;8.00;;;19.70;98.80;;;;;;5052002;28;20043;-69
2022/11/10 09:24:17;;;;;;;14.25;8.25;;;19.70;98.70;;;;;;5051806;28;20044;-71
2022/11/10 09:27:40;;;;;;;12.55;7.20;;;19.60;98.60;;;;;;5051986;28;20064;-71
2022/11/10 09:31:03;;;;;;;12.85;5.95;;;19.50;98.90;;;;;;5051717;28;20083;-69
2022/11/10 09:34:25;;;;;;;9.00;5.05;;;19.30;99.10;;;;;;5051577;28;20503;-73
2022/11/10 09:37:48;;;;;;;4.65;3.83;;;19.20;99.20;;;;;;5051568;28;20511;-68
2022/11/10 09:41:13;;;;;;;8.52;4.50;;;19.20;99.40;;;;;;5051682;28;20048;-68
2022/11/10 09:44:50;;;;;;;8.43;4.95;;;19.20;99.50;;;;;;5051272;28;20063;-69
2022/11/10 09:48:22;;;;;;;6.05;3.30;;;19.30;99.70;;;;;;5051887;28;20515;-71
2022/11/10 09:51:46;;;;;;;4.55;2.63;;;19.60;99.60;;;;;;5051087;28;20071;-68
2022/11/10 09:55:30;;;;;;;6.80;3.40;;;20.00;99.00;;;;;;5051052;28;20055;-69
2022/11/10 09:58:52;;;;;;;6.72;3.08;;;20.50;98.20;;;;;;5051856;28;20036;-70
2022/11/10 10:02:25;;;;;;;3.95;2.45;;;20.80;97.90;;;;;;5051621;28;20040;-69
2022/11/10 10:06:14;;;;;;;7.57;2.13;;;21.10;97.20;;;;;;5051465;28;20389;-68
2022/11/10 10:09:51;;;;;;;3.20;2.03;;;21.30;96.30;;;;;;5051155;28;20060;-68
2022/11/10 10:13:43;;;;;;;8.50;2.90;;;21.50;96.10;;;;;;5051185;28;20040;-68
2022/11/10 10:17:21;;;;;;;5.47;1.88;;;21.70;96.00;;;;;;5050388;28;20484;-69
2022/11/10 10:20:56;;;;;;;5.70;2.08;;;21.80;95.40;;;;;;5051235;28;20048;-69
2022/11/10 10:24:21;;;;;;;5.45;2.08;;;21.90;95.50;;;;;;5050727;28;20040;-72
2022/11/10 10:27:47;;;;;;;7.25;2.22;;;21.90;95.50;;;;;;5050518;28;20055;-69
2022/11/10 10:31:18;;;;;;;4.57;2.28;;;22.00;95.30;;;;;;5050550;28;20649;-67
2022/11/10 10:34:43;;;;;;;7.65;2.20;;;22.00;95.30;;;;;;5051250;28;20060;-68
2022/11/10 10:38:32;;;;;;;5.93;2.13;;;22.00;95.30;;;;;;5051002;28;20052;-69
2022/11/10 10:41:55;;;;;;;3.58;1.90;;;22.10;95.20;;;;;;5050768;28;20503;-69
2022/11/10 10:45:22;;;;;;;4.97;2.00;;;22.10;94.80;;;;;;5050518;28;20520;-69
2022/11/10 10:48:44;;;;;;;5.35;2.25;;;21.90;95.00;;;;;;5050739;28;20068;-70
2022/11/10 10:52:15;;;;;;;9.07;2.72;;;21.80;95.10;;;;;;5050906;28;20052;-69
2022/11/10 10:55:43;;;;;;;7.85;2.50;;;21.80;95.30;;;;;;5050623;28;20044;-71
2022/11/10 10:59:21;;;;;;;9.18;2.60;;;21.70;95.50;;;;;;5050153;28;20499;-71
2022/11/10 11:03:01;;;;;;;5.47;2.10;;;21.80;95.50;;;;;;5050923;28;20036;-72
2022/11/10 11:06:30;;;;;;;3.72;2.20;;;21.80;95.60;;;;;;5052407;28;20056;-70
2022/11/10 11:09:53;;;;;;;6.65;2.10;;;21.80;95.40;;;;;;5054445;28;20048;-70
2022/11/10 11:13:27;;;;;;;3.80;2.00;;;21.60;95.40;;;;;;5054819;28;20510;-69
2022/11/10 11:16:55;;;;;;;5.45;2.35;;;21.60;95.60;;;;;;5054943;28;20040;-69
2022/11/10 11:20:18;;;;;;;6.20;2.35;;;21.50;95.50;;;;;;5054814;28;20044;-68
2022/11/10 11:23:46;;;;;;;5.88;2.13;;;21.40;95.70;;;;;;5054427;28;20048;-67
2022/11/10 11:27:51;;;;;;;5.57;3.10;;;21.40;95.90;;;;;;5054312;28;20052;-70
2022/11/10 11:31:17;;;;;;;6.80;2.60;;;21.30;96.00;;;;;;5052337;28;20048;-70
2022/11/10 11:35:02;;;;;;;5.32;2.35;;;21.20;96.10;;;;;;5054225;28;20048;-70
2022/11/10 11:38:32;;;;;;;5.28;2.65;;;21.10;96.20;;;;;;5053015;28;20036;-69
2022/11/10 11:42:17;;;;;;;4.68;2.65;;;21.10;96.30;;;;;;5053726;28;20044;-68
2022/11/10 11:46:06;;;;;;;6.78;3.10;;;21.10;96.40;;;;;;5054116;28;20040;-70
2022/11/10 11:49:46;;;;;;;6.60;2.45;;;21.10;96.50;;;;;;5053830;28;20052;-69
2022/11/10 11:53:42;;;;;;;7.10;3.45;;;21.00;96.40;;;;;;5053438;28;20056;-70
2022/11/10 11:57:25;;;;;;;5.93;3.08;;;21.00;96.40;;;;;;5053379;28;20044;-69
2022/11/10 12:00:59;;;;;;;9.52;3.85;;;21.00;96.40;;;;;;5053296;28;20044;-69
2022/11/10 12:04:47;;;;;;;5.00;3.20;;;21.00;96.50;;;;;;5053745;28;20060;-69
2022/11/10 12:08:22;;;;;;;7.07;3.35;;;21.00;96.50;;;;;;5053393;28;20044;-70
2022/11/10 12:11:53;;;;;;;4.82;3.15;;;21.00;96.40;;;;;;5053403;28;20064;-70
2022/11/10 12:15:18;;;;;;;;;;;21.10;96.60;;;;;;5054006;28;20048;-70
2022/11/10 12:18:47;;;;;;;4.28;2.90;;;21.10;96.70;;;;;;5053357;28;19931;-70
2022/11/10 12:22:48;;;;;;;4.57;3.20;;;21.00;96.60;;;;;;5053062;28;20044;-70
2022/11/10 12:26:44;;;;;;;4.55;2.80;;;21.00;96.60;;;;;;5053177;28;20037;-70
2022/11/10 12:30:16;;;;;;;5.40;2.20;;;21.00;96.40;;;;;;5052980;28;20044;-70
2022/11/10 12:33:52;;;;;;;5.03;2.20;;;21.00;96.10;;;;;;5053146;28;20069;-70
2022/11/10 12:37:37;;;;;;;4.55;2.45;;;21.00;95.80;;;;;;5053082;28;20504;-70
2022/11/10 12:41:06;;;;;;;4.20;2.22;;;21.00;94.80;;;;;;5053218;28;20048;-70
2022/11/10 12:44:35;;;;;;;4.35;2.53;;;21.00;94.90;;;;;;5053052;28;20040;-70
2022/11/10 12:47:59;;;;;;;5.32;2.75;;;20.90;94.80;;;;;;5052838;28;20048;-70
2022/11/10 12:51:32;;;;;;;4.22;2.38;;;20.90;94.80;;;;;;5052456;28;20059;-70
2022/11/10 12:54:55;;;;;;;3.53;2.60;;;20.90;95.00;;;;;;5051956;28;20404;-69
2022/11/10 12:58:18;;;;;;;6.57;2.15;;;20.80;95.20;;;;;;5052785;28;20055;-68
2022/11/10 13:01:43;;;;;;;3.88;2.55;;;20.80;95.00;;;;;;5053349;28;20040;-70
2022/11/10 13:05:26;;;;;;;7.28;2.75;;;20.80;95.00;;;;;;5052570;28;20043;-70
2022/11/10 13:08:49;;;;;;;15.02;3.20;;;20.80;95.20;;;;;;5051771;28;20048;-70
2022/11/10 13:12:20;;;;;;;10.60;2.55;;;20.80;95.20;;;;;;5049379;28;20052;-69
2022/11/10 13:15:43;;;;;;;4.37;2.30;;;20.80;95.20;;;;;;5052062;28;20044;-71
2022/11/10 13:19:08;;;;;;;6.43;2.28;;;20.80;95.00;;;;;;5052138;28;20059;-70
2022/11/10 13:22:32;;;;;;;7.68;3.55;;;20.70;95.10;;;;;;5051634;28;20055;-71
2022/11/10 13:26:01;;;;;;;9.73;3.20;;;20.70;95.40;;;;;;5051934;28;20040;-70
2022/11/10 13:29:28;;;;;;;9.82;3.83;;;20.70;95.40;;;;;;5050336;28;20052;-69
2022/11/10 13:32:50;;;;;;;5.90;3.17;;;20.70;95.60;;;;;;5051911;28;20048;-71
2022/11/10 13:36:40;;;;;;;7.90;3.70;;;20.70;95.60;;;;;;5051744;28;20044;-69
2022/11/10 13:40:21;;;;;;;8.13;3.20;;;20.70;95.60;;;;;;5051765;28;20044;-69
2022/11/10 13:43:53;;;;;;;9.55;4.57;;;20.70;95.70;;;;;;5051795;28;20055;-69
2022/11/10 13:47:54;;;;;;;9.75;3.28;;;20.70;95.60;;;;;;5051761;28;20040;-70
2022/11/10 13:52:04;;;;;;;5.88;3.92;;;20.60;95.70;;;;;;5050931;28;20055;-68
2022/11/10 13:55:54;;;;;;;7.10;3.80;;;20.60;95.80;;;;;;5051705;28;20393;-69
2022/11/10 13:59:26;;;;;;;9.68;4.55;;;20.60;95.90;;;;;;5051355;28;20040;-69
2022/11/10 14:02:50;;;;;;;8.18;4.88;;;20.60;96.00;;;;;;5051338;28;20044;-70
2022/11/10 14:06:36;;;;;;;9.27;5.03;;;20.60;96.10;;;;;;5051507;28;20040;-69
2022/11/10 14:10:06;;;;;;;14.35;5.03;;;20.60;96.20;;;;;;5051154;28;20055;-68
2022/11/10 14:13:44;;;;;;;7.82;4.47;;;20.50;96.30;;;;;;5051452;28;20515;-70
2022/11/10 14:17:17;;;;;;;7.80;4.30;;;20.50;96.40;;;;;;5051495;28;20047;-69
2022/11/10 14:20:43;;;;;;;9.30;4.70;;;20.50;96.40;;;;;;5051350;28;20039;-68
2022/11/10 14:24:15;;;;;;;7.55;4.35;;;20.50;96.40;;;;;;5051344;28;20048;-69
2022/11/10 14:27:38;;;;;;;9.38;5.10;;;20.50;96.50;;;;;;5051268;28;20488;-70
2022/11/10 14:31:01;;;;;;;6.57;4.65;;;20.40;96.50;;;;;;5050771;28;20060;-69
2022/11/10 14:34:25;;;;;;;9.32;4.82;;;20.40;96.60;;;;;;5050819;28;20044;-68
2022/11/10 14:37:48;;;;;;;6.47;3.92;;;20.40;96.70;;;;;;5051098;28;20063;-69
2022/11/10 14:41:20;;;;;;;8.77;5.38;;;20.40;96.80;;;;;;5050996;28;20538;-69
2022/11/10 14:44:43;;;;;;;6.97;4.38;;;20.30;96.90;;;;;;5050718;28;20040;-69
2022/11/10 14:48:16;;;;;;;7.95;4.10;;;20.30;96.90;;;;;;5051267;28;20043;-69
2022/11/10 14:51:39;;;;;;;6.55;3.90;;;20.30;97.00;;;;;;5050500;28;20530;-69
2022/11/10 14:55:12;;;;;;;5.60;3.83;;;20.30;97.00;;;;;;5050777;28;20052;-70
2022/11/10 14:58:38;;;;;;;8.98;4.85;;;20.20;97.00;;;;;;5051028;28;20059;-69
2022/11/10 15:02:01;;;;;;;11.85;4.70;;;20.20;97.10;;;;;;5050752;28;20048;-70
2022/11/10 15:05:24;;;;;;;7.28;4.20;;;20.20;97.10;;;;;;5050797;28;20044;-69
2022/11/10 15:08:47;;;;;;;6.70;3.72;;;20.10;97.20;;;;;;5050735;28;20048;-69
2022/11/10 15:12:24;;;;;;;5.90;3.92;;;20.10;97.30;;;;;;5050783;28;20056;-70
2022/11/10 15:15:47;;;;;;;5.45;3.55;;;20.10;97.40;;;;;;5050560;28;20108;-68
2022/11/10 15:19:27;;;;;;;7.05;4.55;;;20.00;97.40;;;;;;5050307;28;20044;-69
2022/11/10 15:22:50;;;;;;;7.95;4.50;;;20.00;97.50;;;;;;5050472;28;20401;-69
2022/11/10 15:26:24;;;;;;;7.20;4.05;;;19.90;97.60;;;;;;5050659;28;20444;-69
2022/11/10 15:29:47;;;;;;;11.85;4.30;;;19.90;97.60;;;;;;5050244;28;20503;-68
2022/11/10 15:33:10;;;;;;;10.23;4.40;;;19.90;97.70;;;;;;5050575;28;20059;-68
2022/11/10 15:36:40;;;;;;;8.38;4.22;;;19.80;97.80;;;;;;5050306;28;20040;-69
2022/11/10 15:40:32;;;;;;;13.52;4.75;;;19.80;97.90;;;;;;5050274;28;20088;-68
2022/11/10 15:43:55;;;;;;;9.77;5.30;;;19.70;98.10;;;;;;5050310;28;20044;-69
2022/11/10 15:47:19;;;;;;;13.48;4.35;;;19.70;98.20;;;;;;5050409;28;20056;-69
2022/11/10 15:50:45;;;;;;;10.23;5.28;;;19.70;98.30;;;;;;5050006;28;20048;-69
2022/11/10 15:54:09;;;;;;;12.40;5.78;;;19.60;98.50;;;;;;5053339;28;20040;-69
2022/11/10 15:57:32;;;;;;;12.27;5.80;;;19.60;98.70;;;;;;5053627;28;20107;-68
2022/11/10 16:00:55;;;;;;;13.07;5.90;;;19.50;98.80;;;;;;5053766;28;20044;-68
2022/11/10 16:04:18;;;;;;;13.45;6.90;;;19.50;99.00;;;;;;5053789;28;20044;-68
2022/11/10 16:07:41;;;;;;;15.50;7.47;;;19.40;99.20;;;;;;5053541;28;20451;-69
2022/11/10 16:11:04;;;;;;;16.23;8.15;;;19.40;99.40;;;;;;5053404;28;20060;-69
2022/11/10 16:14:26;;;;;;;18.20;8.65;;;19.40;99.40;;;;;;5053241;28;20056;-69
2022/11/10 16:17:48;;;;;;;15.65;7.78;;;19.40;99.50;;;;;;5053376;28;20499;-69
2022/11/10 16:21:20;;;;;;;20.35;9.90;;;19.30;99.60;;;;;;5053273;28;20036;-69
2022/11/10 16:24:42;;;;;;;17.77;10.03;;;19.30;99.80;;;;;;5053259;28;20043;-69
2022/11/10 16:28:05;;;;;;;21.98;9.65;;;19.20;99.80;;;;;;5052925;28;20036;-71
2022/11/10 16:31:28;;;;;;;22.25;10.48;;;19.20;99.90;;;;;;5052847;28;20056;-69
2022/11/10 16:34:50;;;;;;;18.00;9.60;;;19.10;99.90;;;;;;5052309;28;20044;-70
2022/11/10 16:38:28;;;;;;;19.73;10.55;;;19.10;99.90;;;;;;5052920;28;20645;-69
2022/11/10 16:41:50;;;;;;;17.48;9.88;;;19.10;99.90;;;;;;5052832;28;20040;-68
2022/11/10 16:45:28;;;;;;;17.65;10.90;;;19.00;99.90;;;;;;5052713;28;20060;-70
2022/11/10 16:48:59;;;;;;;16.83;9.20;;;19.00;99.90;;;;;;5052805;28;20048;-68
2022/11/10 16:52:22;;;;;;;16.77;10.50;;;19.00;99.90;;;;;;5052388;28;20059;-68
2022/11/10 16:55:44;;;;;;;20.23;8.75;;;18.90;99.50;;;;;;5052943;28;20279;-69
2022/11/10 16:59:08;;;;;;;19.95;9.43;;;18.80;98.90;;;;;;5052490;28;20400;-67
2022/11/10 17:02:35;;;;;;;15.48;8.35;;;18.80;98.80;;;;;;5051587;28;20373;-70
2022/11/10 17:05:58;;;;;;;19.90;10.50;;;18.80;98.50;;;;;;5052565;28;20393;-69
2022/11/10 17:09:24;;;;;;;19.40;11.48;;;18.80;98.30;;;;;;5052261;28;20400;-67
2022/11/10 17:12:47;;;;;;;19.67;11.18;;;18.70;98.50;;;;;;5052165;28;20044;-69
2022/11/10 17:16:32;;;;;;;20.48;11.40;;;18.70;98.40;;;;;;5051844;28;20036;-69
2022/11/10 17:19:54;;;;;;;23.88;10.98;;;18.70;98.50;;;;;;5051805;28;20036;-70
2022/11/10 17:23:21;;;;;;;24.98;12.32;;;18.70;98.50;;;;;;5051751;28;20386;-70
2022/11/10 17:26:44;;;;;;;35.90;17.17;;;18.60;98.10;;;;;;5052081;28;20044;-70
2022/11/10 17:30:09;;;;;;;27.40;12.48;;;18.60;98.30;;;;;;5052005;28;20052;-69
2022/11/10 17:33:31;;;;;;;26.70;12.98;;;18.50;98.70;;;;;;5051839;28;20115;-69
2022/11/10 17:36:54;;;;;;;33.10;14.20;;;18.40;99.10;;;;;;5051914;28;20116;-69
2022/11/10 17:40:22;;;;;;;38.17;15.98;;;18.30;99.50;;;;;;5051838;28;20044;-70
2022/11/10 17:43:46;;;;;;;39.92;16.50;;;18.30;99.80;;;;;;5051512;28;20044;-70
2022/11/10 17:47:08;;;;;;;28.13;15.80;;;18.20;99.90;;;;;;5051764;28;20063;-70
2022/11/10 17:50:33;;;;;;;38.22;15.60;;;18.10;99.90;;;;;;5051253;28;20068;-69
2022/11/10 17:53:57;;;;;;;31.20;15.38;;;18.10;99.90;;;;;;5050393;28;20064;-69
2022/11/10 17:57:20;;;;;;;42.08;16.15;;;18.10;99.90;;;;;;5050592;28;20365;-68